Time;durP1;ratioP1;P1;durP2;ratioP2;P2;SDS_P1;SDS_P2;PMS_P1;PMS_P2;Temp;Humidity;BMP_temperature;BMP_pressure;BME280_temperature;BME280_humidity;BME280_pressure;Samples;Min_cycle;Max_cycle;Signal;HPM_P1;HPM_P2
2023/03/30 00:02:22;;;;;;;13.40;6.45;;;12.00;99.90;;;;;;5060404;28;20033;-78
2023/03/30 00:04:51;;;;;;;14.10;6.95;;;12.00;99.90;;;;;;5078069;28;20051;-78
2023/03/30 00:07:18;;;;;;;15.10;6.97;;;11.70;99.90;;;;;;5069154;28;20048;-78
2023/03/30 00:09:45;;;;;;;10.80;6.57;;;12.20;99.90;;;;;;5077927;28;20032;-78
2023/03/30 00:12:12;;;;;;;10.18;6.28;;;12.40;99.90;;;;;;5057210;28;20040;-78
2023/03/30 00:14:41;;;;;;;11.35;6.15;;;12.80;99.90;;;;;;5061886;28;20041;-78
2023/03/30 00:17:07;;;;;;;12.63;6.30;;;12.00;99.90;;;;;;5077470;28;20047;-78
2023/03/30 00:19:36;;;;;;;11.70;6.28;;;11.90;99.90;;;;;;5076848;28;20036;-78
2023/03/30 00:22:05;;;;;;;12.15;6.40;;;11.80;99.90;;;;;;5069303;28;20080;-78
2023/03/30 00:24:31;;;;;;;9.60;6.43;;;12.10;99.90;;;;;;5066270;28;20074;-78
2023/03/30 00:26:56;;;;;;;10.90;6.35;;;12.60;99.90;;;;;;5058102;28;20086;-78
2023/03/30 00:29:22;;;;;;;11.55;6.40;;;12.60;99.90;;;;;;5061810;28;20028;-78
2023/03/30 00:31:47;;;;;;;14.05;6.00;;;11.60;99.90;;;;;;5064852;28;20032;-78
2023/03/30 00:34:13;;;;;;;13.23;6.93;;;12.60;99.90;;;;;;5064629;28;20055;-77
2023/03/30 00:36:38;;;;;;;10.23;6.60;;;12.70;99.90;;;;;;5077184;28;20036;-78
2023/03/30 00:39:05;;;;;;;13.13;6.45;;;11.80;99.90;;;;;;5076988;28;20052;-78
2023/03/30 00:41:35;;;;;;;12.27;6.15;;;11.80;99.90;;;;;;5067196;28;20503;-78
2023/03/30 00:44:42;;;;;;;10.60;6.10;;;12.80;99.90;;;;;;5059739;28;20054;-78
2023/03/30 00:47:08;;;;;;;10.95;6.40;;;11.60;99.90;;;;;;5071495;28;20570;-78
2023/03/30 00:49:34;;;;;;;10.68;6.10;;;12.70;99.90;;;;;;5095359;28;20042;-78
2023/03/30 00:52:01;;;;;;;13.23;6.25;;;12.70;99.90;;;;;;5066588;28;20067;-78
2023/03/30 00:54:27;;;;;;;15.63;6.70;;;12.10;99.90;;;;;;5070549;28;20048;-78
2023/03/30 00:56:53;;;;;;;10.20;6.05;;;12.30;99.90;;;;;;5072836;28;20037;-78
2023/03/30 00:59:18;;;;;;;13.18;6.13;;;11.90;99.90;;;;;;5065561;28;20040;-78
2023/03/30 01:01:49;;;;;;;9.93;5.85;;;11.30;99.90;;;;;;5074685;28;20082;-78
2023/03/30 01:04:19;;;;;;;11.60;6.25;;;11.60;99.90;;;;;;5071452;28;20404;-77
2023/03/30 01:06:47;;;;;;;11.85;6.30;;;11.90;99.90;;;;;;5071611;28;20064;-78
2023/03/30 01:09:14;;;;;;;9.23;5.90;;;12.70;99.90;;;;;;5059322;28;20100;-78
2023/03/30 01:11:41;;;;;;;13.45;6.60;;;11.70;99.90;;;;;;5075128;28;20033;-78
2023/03/30 01:14:09;;;;;;;12.88;7.13;;;12.50;99.90;;;;;;5065438;28;20135;-77
2023/03/30 01:17:00;;;;;;;12.15;6.53;;;11.60;99.90;;;;;;5060490;28;20532;-78
2023/03/30 01:19:44;;;;;;;12.65;6.43;;;11.60;99.90;;;;;;5067796;28;20029;-78
2023/03/30 01:22:33;;;;;;;11.52;6.15;;;11.50;99.90;;;;;;5071470;28;20048;-78
2023/03/30 01:25:27;;;;;;;14.65;6.13;;;11.60;99.90;;;;;;5056204;28;20036;-78
2023/03/30 01:28:08;;;;;;;13.57;5.90;;;11.60;99.90;;;;;;5079134;28;20043;-78
2023/03/30 01:30:54;;;;;;;12.50;5.82;;;11.20;99.90;;;;;;5073945;28;20066;-78
2023/03/30 01:33:48;;;;;;;9.02;5.65;;;12.80;99.90;;;;;;5080191;28;20040;-78
2023/03/30 01:37:02;;;;;;;12.75;5.95;;;11.70;99.90;;;;;;5056383;28;20055;-78
2023/03/30 01:39:43;;;;;;;9.52;6.30;;;11.70;99.90;;;;;;5008901;28;20046;-78
2023/03/30 01:42:38;;;;;;;12.40;6.18;;;11.70;99.90;;;;;;5076586;28;20067;-78
2023/03/30 01:45:41;;;;;;;11.40;5.90;;;11.50;99.90;;;;;;5067981;28;20049;-78
2023/03/30 01:48:12;;;;;;;12.73;6.28;;;11.70;99.90;;;;;;5076124;28;20048;-78
2023/03/30 01:50:41;;;;;;;10.90;6.22;;;12.60;99.90;;;;;;5076910;28;20045;-77
2023/03/30 01:53:15;;;;;;;11.48;5.60;;;12.20;99.90;;;;;;5074447;28;20428;-78
2023/03/30 01:55:48;;;;;;;10.60;5.88;;;12.30;99.90;;;;;;5055711;28;20397;-78
2023/03/30 01:58:23;;;;;;;11.55;5.32;;;12.70;99.90;;;;;;5074671;28;20048;-78
2023/03/30 02:00:50;;;;;;;11.98;5.00;;;11.90;99.90;;;;;;5071765;28;20040;-78
2023/03/30 02:03:30;;;;;;;13.02;4.93;;;12.40;99.90;;;;;;5077916;28;20044;-78
2023/03/30 02:06:03;;;;;;;10.10;4.53;;;11.80;99.90;;;;;;5078169;28;20395;-78
2023/03/30 02:08:31;;;;;;;13.40;4.90;;;11.90;99.90;;;;;;5060103;28;20478;-78
2023/03/30 02:10:58;;;;;;;11.02;4.80;;;10.50;99.90;;;;;;5074993;28;20033;-78
2023/03/30 02:13:27;;;;;;;8.30;3.90;;;11.60;99.90;;;;;;5073582;28;20632;-78
2023/03/30 02:16:02;;;;;;;9.35;4.05;;;12.50;99.90;;;;;;5065470;28;20455;-78
2023/03/30 02:18:28;;;;;;;8.95;4.10;;;12.10;99.90;;;;;;5056944;28;20082;-78
2023/03/30 02:20:57;;;;;;;10.18;4.03;;;12.50;99.90;;;;;;5069069;28;20051;-78
2023/03/30 02:23:26;;;;;;;6.38;3.20;;;11.40;99.90;;;;;;5056951;28;20060;-78
2023/03/30 02:25:52;;;;;;;8.93;3.80;;;12.30;99.90;;;;;;5066068;28;20120;-78
2023/03/30 02:28:18;;;;;;;7.70;3.30;;;12.10;99.90;;;;;;5073801;28;20083;-78
2023/03/30 02:30:45;;;;;;;7.90;3.47;;;12.40;99.90;;;;;;5063585;28;20405;-78
2023/03/30 02:33:28;;;;;;;7.30;3.65;;;12.50;99.90;;;;;;5072645;28;20047;-78
2023/03/30 02:36:22;;;;;;;7.63;3.90;;;12.40;99.90;;;;;;5059013;28;20444;-77
2023/03/30 02:39:00;;;;;;;7.70;3.67;;;12.50;99.90;;;;;;5057516;28;20432;-78
2023/03/30 02:41:48;;;;;;;6.85;4.10;;;12.60;99.90;;;;;;5053788;28;20044;-78
2023/03/30 02:44:42;;;;;;;7.57;3.30;;;12.50;99.90;;;;;;5048610;28;20045;-78
2023/03/30 02:47:17;;;;;;;7.55;3.47;;;12.50;99.90;;;;;;5066981;28;20404;-78
2023/03/30 02:50:20;;;;;;;6.63;3.65;;;14.00;99.90;;;;;;5056000;28;20037;-78
2023/03/30 02:52:51;;;;;;;10.82;3.40;;;12.50;99.90;;;;;;5067974;28;20043;-78
2023/03/30 02:55:33;;;;;;;7.77;3.63;;;12.50;99.90;;;;;;5071547;28;20040;-78
2023/03/30 02:58:14;;;;;;;7.60;3.72;;;12.50;99.90;;;;;;5064149;28;20516;-78
2023/03/30 03:00:45;;;;;;;8.82;3.40;;;12.50;99.90;;;;;;5068163;28;20032;-78
2023/03/30 03:03:26;;;;;;;8.23;3.40;;;12.70;99.90;;;;;;5055357;28;20044;-77
2023/03/30 03:05:53;;;;;;;8.25;3.70;;;12.40;99.90;;;;;;5061240;28;20151;-77
2023/03/30 03:08:23;;;;;;;7.45;3.30;;;12.60;99.90;;;;;;5055964;28;20052;-78
2023/03/30 03:10:50;;;;;;;10.63;3.88;;;12.40;99.90;;;;;;5072207;28;20059;-77
2023/03/30 03:13:16;;;;;;;7.22;3.53;;;12.30;99.90;;;;;;5057840;28;20041;-77
2023/03/30 03:15:44;;;;;;;9.13;3.53;;;13.00;99.90;;;;;;5058492;28;20046;-78
2023/03/30 03:18:11;;;;;;;6.95;3.40;;;12.90;99.90;;;;;;5089967;22;20032;-62
2023/03/30 03:20:38;;;;;;;8.02;3.53;;;12.50;99.90;;;;;;5099009;28;20521;-65
2023/03/30 03:23:04;;;;;;;8.10;3.38;;;12.50;99.90;;;;;;5095173;28;20561;-63
2023/03/30 03:25:30;;;;;;;11.93;3.67;;;12.40;99.90;;;;;;5098834;28;20039;-62
2023/03/30 03:27:56;;;;;;;7.15;3.17;;;12.40;99.90;;;;;;5098996;28;20032;-63
2023/03/30 03:30:22;;;;;;;8.48;3.00;;;12.50;99.90;;;;;;5098167;28;20043;-64
2023/03/30 03:32:49;;;;;;;10.20;3.42;;;12.50;99.90;;;;;;5095118;28;20119;-64
2023/03/30 03:35:15;;;;;;;6.70;3.35;;;12.60;99.90;;;;;;5094310;28;20035;-62
2023/03/30 03:37:40;;;;;;;8.90;3.35;;;12.60;99.90;;;;;;5103305;28;20126;-62
2023/03/30 03:40:07;;;;;;;7.43;2.67;;;12.60;99.90;;;;;;5106929;28;20040;-63
2023/03/30 03:42:32;;;;;;;8.63;3.30;;;12.70;99.90;;;;;;5107289;28;20040;-63
2023/03/30 03:44:58;;;;;;;9.68;2.63;;;12.70;99.90;;;;;;5105639;28;20040;-63
2023/03/30 03:47:24;;;;;;;9.18;3.28;;;12.80;99.90;;;;;;5099264;28;20028;-65
2023/03/30 03:49:49;;;;;;;10.95;3.10;;;12.70;99.90;;;;;;5102622;28;20398;-63
2023/03/30 03:52:15;;;;;;;7.50;3.30;;;12.80;99.90;;;;;;5098506;28;20046;-62
2023/03/30 03:54:40;;;;;;;7.93;3.10;;;12.70;99.90;;;;;;5105405;28;20090;-62
2023/03/30 03:57:06;;;;;;;10.05;3.50;;;12.70;99.90;;;;;;5101747;28;20040;-65
2023/03/30 03:59:32;;;;;;;9.15;3.45;;;12.70;99.90;;;;;;5101496;28;20127;-62
2023/03/30 04:01:57;;;;;;;7.80;3.33;;;12.70;99.90;;;;;;5102610;28;20036;-63
2023/03/30 04:04:23;;;;;;;8.80;2.88;;;12.60;99.90;;;;;;5092968;28;20040;-63
2023/03/30 04:06:48;;;;;;;8.40;3.17;;;12.60;99.90;;;;;;5096554;28;20560;-64
2023/03/30 04:09:14;;;;;;;6.00;2.95;;;12.60;99.90;;;;;;5099410;28;20366;-67
2023/03/30 04:11:40;;;;;;;8.52;3.38;;;12.70;99.90;;;;;;5098505;28;20035;-63
2023/03/30 04:14:05;;;;;;;13.02;3.58;;;12.60;99.90;;;;;;5106338;28;20044;-65
2023/03/30 04:16:31;;;;;;;9.45;3.70;;;12.50;99.90;;;;;;5095930;28;20484;-64
2023/03/30 04:18:57;;;;;;;10.70;3.42;;;12.50;99.90;;;;;;5094249;28;20043;-66
2023/03/30 04:21:24;;;;;;;10.77;3.70;;;12.40;99.90;;;;;;5104595;28;20046;-65
2023/03/30 04:23:49;;;;;;;9.18;3.42;;;12.30;99.90;;;;;;5099561;28;20454;-63
2023/03/30 04:26:16;;;;;;;7.57;3.50;;;12.30;99.90;;;;;;5115960;28;20032;-64
2023/03/30 04:28:42;;;;;;;11.25;4.32;;;12.30;99.90;;;;;;5096694;28;20040;-64
2023/03/30 04:31:09;;;;;;;6.15;3.25;;;12.30;99.90;;;;;;5092312;28;20043;-63
2023/03/30 04:33:36;;;;;;;7.60;3.60;;;12.20;99.90;;;;;;5092720;28;20032;-63
2023/03/30 04:36:03;;;;;;;9.98;3.97;;;12.20;99.90;;;;;;5095273;28;20367;-64
2023/03/30 04:38:29;;;;;;;9.90;3.45;;;12.20;99.90;;;;;;5102588;28;20028;-63
2023/03/30 04:40:54;;;;;;;7.15;3.55;;;12.20;99.90;;;;;;5098330;28;20032;-63
2023/03/30 04:43:22;;;;;;;7.72;3.20;;;12.20;99.90;;;;;;5105140;28;20068;-63
2023/03/30 04:45:52;;;;;;;11.98;3.65;;;12.20;99.90;;;;;;5091611;28;20059;-65
2023/03/30 04:48:19;;;;;;;7.93;4.00;;;12.20;99.90;;;;;;5096380;28;20032;-63
2023/03/30 04:50:46;;;;;;;8.50;3.28;;;12.20;99.90;;;;;;5096229;28;20085;-63
2023/03/30 04:53:15;;;;;;;9.65;3.60;;;12.20;99.90;;;;;;5099734;28;20424;-63
2023/03/30 04:55:46;;;;;;;9.98;3.60;;;12.20;99.90;;;;;;5108138;28;20032;-63
2023/03/30 04:58:11;;;;;;;10.10;3.45;;;12.10;99.90;;;;;;5097324;28;20043;-63
2023/03/30 05:00:37;;;;;;;6.47;2.97;;;12.10;99.90;;;;;;5100025;28;20639;-63
2023/03/30 05:03:03;;;;;;;9.68;3.58;;;12.10;99.90;;;;;;5093124;28;20458;-63
2023/03/30 05:05:29;;;;;;;9.25;3.53;;;12.10;99.90;;;;;;5095221;28;20420;-63
2023/03/30 05:07:56;;;;;;;6.45;3.17;;;12.10;99.90;;;;;;5089369;28;20093;-63
2023/03/30 05:10:21;;;;;;;11.23;4.05;;;12.10;99.90;;;;;;5106329;28;20028;-63
2023/03/30 05:12:47;;;;;;;12.93;3.58;;;12.10;99.90;;;;;;5093799;28;20120;-65
2023/03/30 05:15:13;;;;;;;9.50;3.70;;;12.10;99.90;;;;;;5105273;28;20075;-65
2023/03/30 05:17:39;;;;;;;7.70;3.50;;;12.10;99.90;;;;;;5104134;28;20152;-63
2023/03/30 05:20:08;;;;;;;9.55;3.38;;;12.10;99.90;;;;;;5104294;28;20162;-63
2023/03/30 05:22:35;;;;;;;6.90;2.90;;;12.20;99.90;;;;;;5095918;28;20111;-65
2023/03/30 05:25:01;;;;;;;9.68;3.42;;;12.20;99.90;;;;;;5106665;28;20509;-64
2023/03/30 05:27:27;;;;;;;8.05;3.05;;;12.30;99.90;;;;;;5110825;28;20044;-64
2023/03/30 05:29:52;;;;;;;9.32;3.05;;;12.30;99.90;;;;;;5102269;28;20062;-66
2023/03/30 05:32:18;;;;;;;10.07;2.75;;;12.20;99.90;;;;;;5099480;28;20077;-63
2023/03/30 05:34:44;;;;;;;6.93;2.70;;;12.30;99.90;;;;;;5102457;28;20039;-63
2023/03/30 05:37:09;;;;;;;10.25;2.60;;;12.30;99.90;;;;;;5099664;28;20066;-64
2023/03/30 05:39:35;;;;;;;7.07;2.60;;;12.30;99.90;;;;;;5095461;28;20432;-64
2023/03/30 05:42:01;;;;;;;6.68;2.42;;;12.40;99.90;;;;;;5111034;28;20122;-63
2023/03/30 05:44:27;;;;;;;11.38;2.92;;;12.40;99.90;;;;;;5093841;28;20040;-65
2023/03/30 05:46:52;;;;;;;6.38;2.42;;;12.40;99.90;;;;;;5101592;28;20638;-64
2023/03/30 05:49:18;;;;;;;7.88;2.70;;;12.40;99.90;;;;;;5110182;28;20071;-64
2023/03/30 05:51:43;;;;;;;4.72;2.53;;;12.40;99.90;;;;;;5099287;28;20028;-64
2023/03/30 05:54:11;;;;;;;14.07;3.40;;;12.50;99.90;;;;;;5100594;28;20497;-65
2023/03/30 05:56:37;;;;;;;7.13;2.80;;;12.50;99.90;;;;;;5100000;28;20040;-63
2023/03/30 05:59:04;;;;;;;9.65;2.90;;;12.50;99.90;;;;;;5098930;28;20047;-65
2023/03/30 06:01:29;;;;;;;12.07;2.97;;;12.50;99.90;;;;;;5107285;28;20048;-65
2023/03/30 06:03:55;;;;;;;9.95;3.40;;;12.60;99.90;;;;;;5099687;28;20035;-63
2023/03/30 06:06:21;;;;;;;4.82;2.80;;;12.60;99.90;;;;;;5101450;28;20409;-63
2023/03/30 06:08:48;;;;;;;11.93;3.40;;;12.60;99.90;;;;;;5110208;28;20032;-63
2023/03/30 06:11:14;;;;;;;7.93;3.17;;;12.70;99.90;;;;;;5105322;28;20086;-63
2023/03/30 06:13:39;;;;;;;8.98;3.10;;;12.70;99.90;;;;;;5094948;28;20672;-65
2023/03/30 06:16:06;;;;;;;10.50;2.90;;;12.70;99.90;;;;;;5101576;28;20040;-64
2023/03/30 06:18:31;;;;;;;9.18;3.00;;;12.70;99.90;;;;;;5103719;28;20044;-63
2023/03/30 06:20:57;;;;;;;9.75;2.38;;;12.80;99.90;;;;;;5103120;28;20150;-63
2023/03/30 06:23:23;;;;;;;9.82;2.60;;;12.80;99.90;;;;;;5102557;28;20035;-64
2023/03/30 06:25:51;;;;;;;10.75;2.63;;;12.90;99.90;;;;;;5097979;28;20451;-64
2023/03/30 06:28:21;;;;;;;9.80;2.63;;;12.80;99.90;;;;;;5110269;28;20032;-64
2023/03/30 06:30:48;;;;;;;9.35;2.75;;;12.80;99.90;;;;;;5100406;28;20111;-64
2023/03/30 06:33:17;;;;;;;8.90;2.33;;;12.80;99.90;;;;;;5095299;28;20028;-63
2023/03/30 06:35:54;;;;;;;12.82;2.63;;;12.80;99.90;;;;;;5100067;28;20559;-66
2023/03/30 06:38:21;;;;;;;14.65;3.00;;;12.80;99.90;;;;;;5103102;28;20036;-64
2023/03/30 06:40:47;;;;;;;12.20;2.80;;;12.80;99.90;;;;;;5097575;28;20040;-65
2023/03/30 06:43:22;;;;;;;12.40;2.60;;;12.80;99.90;;;;;;5101143;28;20561;-64
2023/03/30 06:45:55;;;;;;;10.15;2.60;;;12.90;99.90;;;;;;5092948;28;20119;-67
2023/03/30 06:48:25;;;;;;;15.77;3.28;;;12.80;99.90;;;;;;5105613;28;20055;-64
2023/03/30 06:50:52;;;;;;;10.18;2.90;;;12.80;99.90;;;;;;5099327;28;20035;-65
2023/03/30 06:53:19;;;;;;;14.18;2.90;;;12.80;99.90;;;;;;5096881;28;20040;-64
2023/03/30 06:55:50;;;;;;;12.75;3.17;;;12.80;99.90;;;;;;5106005;28;20043;-63
2023/03/30 06:58:16;;;;;;;8.98;2.40;;;12.80;99.90;;;;;;5096339;28;20047;-64
2023/03/30 07:00:42;;;;;;;11.90;2.78;;;12.80;99.90;;;;;;5095020;28;20130;-64
2023/03/30 07:03:08;;;;;;;9.25;2.85;;;12.80;99.90;;;;;;5094868;28;20553;-63
2023/03/30 07:05:34;;;;;;;11.27;3.13;;;12.80;99.90;;;;;;5094372;28;20648;-63
2023/03/30 07:08:00;;;;;;;10.95;2.72;;;12.80;99.90;;;;;;5092111;28;20047;-63
2023/03/30 07:10:26;;;;;;;23.70;3.38;;;12.80;99.90;;;;;;5095501;28;20071;-65
2023/03/30 07:12:52;;;;;;;16.02;3.63;;;12.80;99.90;;;;;;5101794;28;20039;-65
2023/03/30 07:15:17;;;;;;;15.43;3.38;;;12.80;99.90;;;;;;5105941;28;20050;-67
2023/03/30 07:17:43;;;;;;;13.45;3.60;;;12.80;99.90;;;;;;5097896;28;20036;-63
2023/03/30 07:20:10;;;;;;;11.00;2.92;;;12.80;99.90;;;;;;5108661;28;20080;-63
2023/03/30 07:22:35;;;;;;;17.10;3.88;;;12.80;99.90;;;;;;5100537;28;20051;-65
2023/03/30 07:25:01;;;;;;;15.60;3.30;;;12.80;99.90;;;;;;5125821;27;20352;-63
2023/03/30 07:27:27;;;;;;;18.42;4.07;;;12.80;99.90;;;;;;5102324;28;20430;-63
2023/03/30 07:29:53;;;;;;;13.95;3.05;;;12.90;99.90;;;;;;5106742;28;20060;-63
2023/03/30 07:32:19;;;;;;;15.73;3.05;;;12.90;99.90;;;;;;5100727;28;20501;-63
2023/03/30 07:34:46;;;;;;;19.05;3.63;;;12.90;99.90;;;;;;5107120;28;20032;-62
2023/03/30 07:37:13;;;;;;;19.52;3.90;;;12.90;99.90;;;;;;5101444;28;20051;-63
2023/03/30 07:39:39;;;;;;;16.63;3.38;;;12.80;99.90;;;;;;5103840;28;20100;-63
2023/03/30 07:42:05;;;;;;;17.38;3.35;;;12.80;99.90;;;;;;5100020;28;20032;-65
2023/03/30 07:44:30;;;;;;;16.38;3.53;;;12.80;99.90;;;;;;5108707;28;20067;-64
2023/03/30 07:46:57;;;;;;;19.83;3.35;;;12.80;99.90;;;;;;5100405;28;20031;-65
2023/03/30 07:49:23;;;;;;;19.05;3.88;;;12.80;99.90;;;;;;5108866;28;20487;-64
2023/03/30 07:51:49;;;;;;;15.57;3.67;;;12.70;99.90;;;;;;5102849;28;20056;-63
2023/03/30 07:54:15;;;;;;;16.25;3.88;;;12.70;99.90;;;;;;5100379;28;20044;-65
2023/03/30 07:56:41;;;;;;;14.15;3.20;;;12.70;99.90;;;;;;5104819;28;20035;-64
2023/03/30 07:59:08;;;;;;;12.80;2.92;;;12.70;99.90;;;;;;5106952;28;20031;-65
2023/03/30 08:01:35;;;;;;;17.88;3.75;;;12.70;99.90;;;;;;5100862;28;20032;-65
2023/03/30 08:04:01;;;;;;;13.93;3.60;;;12.70;99.90;;;;;;5090919;28;20101;-65
2023/03/30 08:06:27;;;;;;;17.65;3.67;;;12.70;99.90;;;;;;5102382;28;20106;-65
2023/03/30 08:08:53;;;;;;;19.70;3.53;;;12.60;99.90;;;;;;5105264;28;20488;-63
2023/03/30 08:11:19;;;;;;;20.58;4.18;;;12.60;99.90;;;;;;5099484;28;20076;-64
2023/03/30 08:13:45;;;;;;;22.20;3.95;;;12.60;99.90;;;;;;5110296;28;20040;-65
2023/03/30 08:16:11;;;;;;;19.88;4.10;;;12.60;99.90;;;;;;5108389;28;20043;-65
2023/03/30 08:18:37;;;;;;;16.73;4.07;;;12.60;99.90;;;;;;5110377;28;20047;-65
2023/03/30 08:21:03;;;;;;;19.90;4.15;;;12.50;99.90;;;;;;5098676;28;20039;-65
2023/03/30 08:23:29;;;;;;;23.67;4.28;;;12.50;99.90;;;;;;5107063;28;20036;-65
2023/03/30 08:25:59;;;;;;;23.10;4.55;;;12.50;99.90;;;;;;5094726;28;20043;-65
2023/03/30 08:28:25;;;;;;;17.23;3.78;;;12.40;99.90;;;;;;5098609;28;20035;-65
2023/03/30 08:30:52;;;;;;;22.25;4.15;;;12.30;99.90;;;;;;5105118;28;20063;-65
2023/03/30 08:33:17;;;;;;;18.15;4.10;;;12.30;99.90;;;;;;5109752;28;20035;-63
2023/03/30 08:35:45;;;;;;;24.55;4.10;;;12.10;99.90;;;;;;5107150;28;20042;-65
2023/03/30 08:38:11;;;;;;;20.77;3.85;;;12.10;99.90;;;;;;5103124;28;20035;-65
2023/03/30 08:40:41;;;;;;;18.98;4.25;;;12.00;99.90;;;;;;5098651;28;20030;-65
2023/03/30 08:43:27;;;;;;;19.30;3.92;;;12.00;99.90;;;;;;5110570;28;20044;-65
2023/03/30 08:45:53;;;;;;;18.70;4.25;;;12.00;99.90;;;;;;5108940;28;20127;-65
2023/03/30 08:48:22;;;;;;;21.92;4.03;;;12.10;99.90;;;;;;5107217;28;20127;-65
2023/03/30 08:51:01;;;;;;;22.90;4.85;;;12.20;99.90;;;;;;5102724;28;20131;-65
2023/03/30 08:53:29;;;;;;;26.10;5.00;;;12.20;99.90;;;;;;5114067;28;20038;-65
2023/03/30 08:56:06;;;;;;;19.20;4.30;;;12.30;99.90;;;;;;5101228;28;20093;-65
2023/03/30 08:58:59;;;;;;;21.38;3.90;;;12.40;99.90;;;;;;5102992;28;20620;-65
2023/03/30 09:01:28;;;;;;;;;;;12.40;99.90;;;;;;5111459;28;20050;-65
2023/03/30 09:04:20;;;;;;;21.23;4.47;;;12.50;99.90;;;;;;5114949;28;19965;-66
2023/03/30 09:06:52;;;;;;;20.60;4.63;;;12.60;99.90;;;;;;5098658;28;20432;-65
2023/03/30 09:09:21;;;;;;;19.85;3.80;;;12.70;99.90;;;;;;5110037;28;20099;-65
2023/03/30 09:11:53;;;;;;;21.90;4.30;;;12.70;99.90;;;;;;5107746;28;20024;-63
2023/03/30 09:14:30;;;;;;;21.92;4.47;;;12.80;99.90;;;;;;5100065;28;20514;-66
2023/03/30 09:17:07;;;;;;;20.10;4.43;;;12.70;99.90;;;;;;5101028;28;20482;-65
2023/03/30 09:19:44;;;;;;;18.77;3.90;;;12.70;99.90;;;;;;5129387;22;20259;-73
2023/03/30 09:22:11;;;;;;;16.08;3.95;;;12.70;99.90;;;;;;5097371;27;20043;-73
2023/03/30 09:24:37;;;;;;;19.58;4.03;;;12.70;99.90;;;;;;5116847;27;20039;-74
2023/03/30 09:27:12;;;;;;;18.20;4.13;;;12.70;99.90;;;;;;5131584;27;20051;-74
2023/03/30 09:29:45;;;;;;;17.55;4.15;;;12.70;99.90;;;;;;5094956;28;20067;-74
2023/03/30 09:32:29;;;;;;;23.75;4.28;;;12.60;99.90;;;;;;5085973;28;20050;-74
2023/03/30 09:35:06;;;;;;;28.00;4.25;;;12.60;99.90;;;;;;5096737;28;20092;-75
2023/03/30 09:37:34;;;;;;;23.98;4.78;;;12.60;99.90;;;;;;5096845;28;20042;-75
2023/03/30 09:40:22;;;;;;;19.48;3.88;;;12.60;99.90;;;;;;5106172;28;20035;-75
2023/03/30 09:43:11;;;;;;;20.67;3.95;;;12.60;99.90;;;;;;5094816;28;20422;-75
2023/03/30 09:45:38;;;;;;;20.92;3.65;;;12.70;99.90;;;;;;5089430;28;20027;-74
2023/03/30 09:48:07;;;;;;;20.30;3.67;;;12.80;99.90;;;;;;5087780;28;20105;-75
2023/03/30 09:50:43;;;;;;;14.13;3.22;;;12.90;99.90;;;;;;5091477;28;20039;-76
2023/03/30 09:53:28;;;;;;;18.15;3.40;;;13.10;99.90;;;;;;5087360;28;20047;-75
2023/03/30 09:56:10;;;;;;;20.20;3.70;;;13.20;99.90;;;;;;5087735;28;20531;-75
2023/03/30 09:58:35;;;;;;;21.85;3.22;;;13.30;99.90;;;;;;5086076;28;20585;-75
2023/03/30 10:01:04;;;;;;;15.98;2.95;;;13.20;99.90;;;;;;5087410;28;20115;-75
2023/03/30 10:03:29;;;;;;;13.25;2.38;;;13.20;99.90;;;;;;5084381;28;20070;-75
2023/03/30 10:06:16;;;;;;;14.05;3.00;;;13.20;99.90;;;;;;5095266;28;20036;-75
2023/03/30 10:08:49;;;;;;;17.75;2.72;;;13.10;99.90;;;;;;5090663;28;20043;-75
2023/03/30 10:11:20;;;;;;;13.23;2.90;;;13.10;99.90;;;;;;5113303;28;20040;-75
2023/03/30 10:13:48;;;;;;;15.52;2.97;;;13.10;99.90;;;;;;5083918;28;20032;-75
2023/03/30 10:16:32;;;;;;;14.75;3.08;;;13.20;99.90;;;;;;5094354;28;20079;-75
2023/03/30 10:19:01;;;;;;;20.67;3.22;;;13.30;99.90;;;;;;5091350;28;20405;-75
2023/03/30 10:21:36;;;;;;;15.02;2.63;;;13.30;99.90;;;;;;5087177;28;20035;-75
2023/03/30 10:24:25;;;;;;;14.23;3.00;;;13.40;99.90;;;;;;5081839;28;20044;-75
2023/03/30 10:27:12;;;;;;;14.10;3.30;;;13.50;99.90;;;;;;5075366;28;20100;-75
2023/03/30 10:29:43;;;;;;;14.15;3.72;;;13.60;99.90;;;;;;5095119;28;20074;-75
2023/03/30 10:32:14;;;;;;;18.05;3.33;;;13.70;99.90;;;;;;5111173;28;20039;-75
2023/03/30 10:34:45;;;;;;;11.15;2.58;;;13.80;99.90;;;;;;5102625;28;20088;-75
2023/03/30 10:37:15;;;;;;;13.57;2.45;;;13.90;99.90;;;;;;5086394;28;20047;-75
2023/03/30 10:39:43;;;;;;;18.40;3.08;;;14.00;99.90;;;;;;5090344;28;20427;-75
2023/03/30 10:42:14;;;;;;;14.27;3.15;;;14.10;99.90;;;;;;5098651;28;20537;-75
2023/03/30 10:45:03;;;;;;;13.65;2.85;;;14.10;99.90;;;;;;5099977;27;20093;-74
2023/03/30 10:47:55;;;;;;;14.15;3.03;;;14.10;99.90;;;;;;5086709;28;20465;-75
2023/03/30 10:50:55;;;;;;;13.48;2.40;;;14.20;99.90;;;;;;5102553;28;20399;-75
2023/03/30 10:53:54;;;;;;;11.57;2.63;;;14.30;99.90;;;;;;5079994;28;20046;-75
2023/03/30 10:56:32;;;;;;;16.08;2.65;;;14.30;99.90;;;;;;5077000;28;20094;-75
2023/03/30 10:59:11;;;;;;;14.00;2.33;;;14.30;99.90;;;;;;5078322;28;20070;-75
2023/03/30 11:02:00;;;;;;;14.90;2.83;;;14.50;99.90;;;;;;5077268;28;20053;-75
2023/03/30 11:04:48;;;;;;;11.18;3.42;;;14.50;99.90;;;;;;5075060;28;20036;-75
2023/03/30 11:07:34;;;;;;;12.15;2.88;;;14.50;99.90;;;;;;5080018;28;20051;-75
2023/03/30 11:10:18;;;;;;;14.70;2.38;;;14.40;99.90;;;;;;5086269;28;20039;-75
2023/03/30 11:13:07;;;;;;;12.55;2.40;;;14.60;99.90;;;;;;5085337;28;20043;-75
2023/03/30 11:15:40;;;;;;;13.50;2.65;;;14.70;99.90;;;;;;5085951;28;20048;-75
2023/03/30 11:18:16;;;;;;;11.40;2.20;;;14.80;99.90;;;;;;5085306;28;20130;-76
2023/03/30 11:20:55;;;;;;;15.05;3.17;;;14.70;99.90;;;;;;5089204;28;20091;-75
2023/03/30 11:23:50;;;;;;;19.63;4.10;;;14.60;99.90;;;;;;5091454;28;20043;-75
2023/03/30 11:26:34;;;;;;;17.77;3.70;;;14.50;99.90;;;;;;5084893;28;20079;-75
2023/03/30 11:29:06;;;;;;;16.88;3.25;;;14.40;99.90;;;;;;5090712;28;20099;-75
2023/03/30 11:31:55;;;;;;;11.82;2.83;;;14.30;99.90;;;;;;5095366;28;20040;-75
2023/03/30 11:34:35;;;;;;;14.57;2.97;;;14.30;99.90;;;;;;5101515;28;20123;-75
2023/03/30 11:37:12;;;;;;;16.15;3.30;;;14.20;99.90;;;;;;5090812;28;20453;-76
2023/03/30 11:39:49;;;;;;;17.10;3.42;;;14.40;99.90;;;;;;5089440;28;20068;-75
2023/03/30 11:42:25;;;;;;;12.57;2.95;;;14.60;99.90;;;;;;5097750;28;20035;-75
2023/03/30 11:44:51;;;;;;;17.70;3.45;;;14.80;99.90;;;;;;5081172;28;20031;-75
2023/03/30 11:47:51;;;;;;;18.38;3.63;;;14.90;99.90;;;;;;5093087;28;20050;-75
2023/03/30 11:50:45;;;;;;;18.73;3.38;;;15.00;99.90;;;;;;5092065;28;20031;-75
2023/03/30 11:53:41;;;;;;;20.38;3.60;;;15.00;99.90;;;;;;5092905;28;20426;-75
2023/03/30 11:56:13;;;;;;;17.70;3.25;;;14.90;99.90;;;;;;5090494;28;20491;-74
2023/03/30 11:58:44;;;;;;;17.83;3.80;;;14.90;99.90;;;;;;5093731;28;20043;-75
2023/03/30 12:01:30;;;;;;;18.37;3.70;;;14.90;99.90;;;;;;5092993;28;20101;-75
2023/03/30 12:04:02;;;;;;;14.48;3.70;;;14.80;99.90;;;;;;5089776;28;20297;-75
2023/03/30 12:06:38;;;;;;;15.20;3.60;;;14.80;99.90;;;;;;5086118;28;20081;-75
2023/03/30 12:09:18;;;;;;;17.13;3.40;;;14.70;99.90;;;;;;5085510;28;20102;-76
2023/03/30 12:11:53;;;;;;;16.83;3.17;;;14.80;99.90;;;;;;5085590;28;20035;-75
2023/03/30 12:14:40;;;;;;;21.20;3.33;;;14.80;99.90;;;;;;5087696;28;20052;-75
2023/03/30 12:17:46;;;;;;;20.17;3.20;;;14.70;99.90;;;;;;5091081;28;20047;-75
2023/03/30 12:20:29;;;;;;;17.52;3.08;;;14.60;99.90;;;;;;5108445;28;20046;-75
2023/03/30 12:23:15;;;;;;;17.83;3.53;;;14.70;99.90;;;;;;5090579;28;20055;-75
2023/03/30 12:25:53;;;;;;;14.50;2.95;;;14.80;99.90;;;;;;5088558;28;20047;-75
2023/03/30 12:28:23;;;;;;;18.58;3.53;;;14.90;99.90;;;;;;5096267;28;20440;-75
2023/03/30 12:30:51;;;;;;;19.63;3.67;;;14.80;99.90;;;;;;5073900;28;20092;-75
2023/03/30 12:33:27;;;;;;;13.10;3.28;;;14.70;99.90;;;;;;5091795;28;20051;-75
2023/03/30 12:35:58;;;;;;;18.92;3.53;;;14.60;99.90;;;;;;5093445;28;20035;-76
2023/03/30 12:38:45;;;;;;;19.90;3.78;;;14.50;99.90;;;;;;5083037;28;20040;-75
2023/03/30 12:41:15;;;;;;;21.92;3.65;;;14.60;99.90;;;;;;5094383;28;20066;-75
2023/03/30 12:43:48;;;;;;;23.00;4.40;;;14.70;99.90;;;;;;5097333;28;20499;-76
2023/03/30 12:46:41;;;;;;;19.90;4.80;;;14.80;99.90;;;;;;5109693;28;20043;-75
2023/03/30 12:49:32;;;;;;;13.43;3.22;;;14.80;99.90;;;;;;5088251;28;20036;-76
2023/03/30 12:52:09;;;;;;;19.70;4.53;;;14.90;99.90;;;;;;5097017;28;20047;-76
2023/03/30 12:55:10;;;;;;;23.05;3.97;;;15.00;99.90;;;;;;5108048;28;20063;-75
2023/03/30 12:57:52;;;;;;;18.42;4.13;;;15.30;99.90;;;;;;5006359;28;20083;-75
2023/03/30 13:00:57;;;;;;;21.48;4.13;;;15.40;99.90;;;;;;5074897;28;20046;-75
2023/03/30 13:04:06;;;;;;;18.45;3.83;;;15.60;99.90;;;;;;5027371;28;20052;-75
2023/03/30 13:06:33;;;;;;;21.83;3.25;;;15.70;99.90;;;;;;5082193;28;20554;-75
2023/03/30 13:09:14;;;;;;;20.63;3.92;;;15.70;99.90;;;;;;5096731;28;20402;-76